createdAt,value
2023-01-04T00:00:47.520Z,7.46
2023-01-04T00:03:14.450Z,7.56
2023-01-04T00:05:48.750Z,7.54
2023-01-04T00:08:22.233Z,7.57
2023-01-04T00:10:56.965Z,7.48
2023-01-04T00:13:31.455Z,7.57
2023-01-04T00:16:08.148Z,7.60
2023-01-04T00:18:43.349Z,7.65
2023-01-04T00:21:25.277Z,7.68
2023-01-04T00:23:54.964Z,7.68
2023-01-04T00:26:37.239Z,7.71
2023-01-04T00:29:07.128Z,7.75
2023-01-04T00:31:41.301Z,7.69
2023-01-04T00:34:13.763Z,7.70
2023-01-04T00:36:47.188Z,7.67
2023-01-04T00:39:15.528Z,7.66
2023-01-04T00:42:00.976Z,7.64
2023-01-04T00:44:43.315Z,7.60
2023-01-04T00:47:10.038Z,7.54
2023-01-04T00:49:43.299Z,7.60
2023-01-04T00:52:10.192Z,7.50
2023-01-04T00:54:43.227Z,7.50
2023-01-04T00:57:10.139Z,7.53
2023-01-04T00:59:43.520Z,7.49
2023-01-04T01:02:17.362Z,7.45
2023-01-04T01:04:44.490Z,7.34
2023-01-04T01:07:18.224Z,7.29
2023-01-04T01:09:51.319Z,7.34
2023-01-04T01:12:24.201Z,7.33
2023-01-04T01:14:52.841Z,7.34
2023-01-04T01:17:22.718Z,7.33
2023-01-04T01:19:56.336Z,7.29
2023-01-04T01:22:29.190Z,7.25
2023-01-04T01:25:02.383Z,7.23
2023-01-04T01:27:35.477Z,7.21
2023-01-04T01:30:08.322Z,7.21
2023-01-04T01:32:35.310Z,7.18
2023-01-04T01:35:08.227Z,7.21
2023-01-04T01:37:34.908Z,7.15
2023-01-04T01:40:08.256Z,7.14
2023-01-04T01:42:55.336Z,7.14
2023-01-04T01:45:38.261Z,7.16
2023-01-04T01:48:13.400Z,7.09
2023-01-04T01:50:57.172Z,7.07
2023-01-04T01:53:27.624Z,7.08
2023-01-04T01:56:04.643Z,7.09
2023-01-04T01:58:34.970Z,7.00
2023-01-04T02:01:09.326Z,7.09
2023-01-04T02:03:40.429Z,7.08
2023-01-04T02:06:20.830Z,7.06
2023-01-04T02:08:49.257Z,7.12
2023-01-04T02:11:22.492Z,7.13
2023-01-04T02:14:08.983Z,7.12
2023-01-04T02:17:03.328Z,7.15
2023-01-04T02:20:07.438Z,7.19
2023-01-04T02:23:07.377Z,7.22
2023-01-04T02:26:27.200Z,7.25
2023-01-04T02:29:31.609Z,7.25
2023-01-04T02:32:13.213Z,7.29
2023-01-04T02:34:59.267Z,7.32
2023-01-04T02:37:58.113Z,7.32
2023-01-04T02:41:00.257Z,7.35
2023-01-04T02:44:08.393Z,7.34
2023-01-04T02:46:55.299Z,7.39
2023-01-04T02:49:47.041Z,7.42
2023-01-04T02:52:21.330Z,7.41
2023-01-04T02:54:58.264Z,7.45
2023-01-04T02:57:33.496Z,7.50
2023-01-04T03:00:25.223Z,7.55
2023-01-04T03:03:31.422Z,7.68
2023-01-04T03:06:31.224Z,7.67
2023-01-04T03:09:08.147Z,7.79
2023-01-04T03:12:38.191Z,7.84
2023-01-04T03:15:14.654Z,7.86
2023-01-04T03:17:56.438Z,7.85
2023-01-04T03:20:24.350Z,7.90
2023-01-04T03:23:21.254Z,7.88
2023-01-04T03:26:25.161Z,8.02
2023-01-04T03:29:18.329Z,8.09
2023-01-04T03:32:11.631Z,8.10
2023-01-04T03:35:04.423Z,8.05
2023-01-04T03:37:43.713Z,8.09
2023-01-04T03:40:52.624Z,8.19
2023-01-04T03:44:06.260Z,8.17
2023-01-04T03:47:08.617Z,8.20
2023-01-04T03:49:57.337Z,8.26
2023-01-04T03:52:35.402Z,8.19
2023-01-04T03:55:12.395Z,8.34
2023-01-04T03:57:47.238Z,8.27
2023-01-04T04:00:21.121Z,8.35
2023-01-04T04:02:55.523Z,8.39
2023-01-04T04:05:43.336Z,8.34
2023-01-04T04:08:37.352Z,8.40
2023-01-04T04:11:40.273Z,8.44
2023-01-04T04:14:07.180Z,8.45
2023-01-04T04:16:34.211Z,8.44
2023-01-04T04:19:08.992Z,8.44
2023-01-04T04:21:42.280Z,8.48
2023-01-04T04:24:25.237Z,8.49
2023-01-04T04:26:54.769Z,8.51
2023-01-04T04:29:29.315Z,8.50
2023-01-04T04:32:02.366Z,8.50
2023-01-04T04:34:35.281Z,8.47
2023-01-04T04:37:01.958Z,8.50
2023-01-04T04:39:35.336Z,8.51
2023-01-04T04:42:03.499Z,8.54
2023-01-04T04:44:50.272Z,8.54
2023-01-04T04:47:16.880Z,8.54
2023-01-04T04:49:50.293Z,8.50
2023-01-04T04:52:16.967Z,8.58
2023-01-04T04:54:50.306Z,8.59
2023-01-04T04:57:16.955Z,8.63
2023-01-04T04:59:50.339Z,8.62
2023-01-04T05:02:17.131Z,8.57
2023-01-04T05:04:44.015Z,8.66
2023-01-04T05:07:17.281Z,8.71
2023-01-04T05:09:44.078Z,8.73
2023-01-04T05:12:38.343Z,8.71
2023-01-04T05:15:05.612Z,8.75
2023-01-04T05:17:39.337Z,8.74
2023-01-04T05:20:07.246Z,8.79
2023-01-04T05:22:41.438Z,8.83
2023-01-04T05:25:16.449Z,8.82
2023-01-04T05:27:50.245Z,8.79
2023-01-04T05:30:43.333Z,8.84
2023-01-04T05:33:10.687Z,8.87
2023-01-04T05:35:44.386Z,8.90
2023-01-04T05:38:11.096Z,8.91
2023-01-04T05:40:44.604Z,8.91
2023-01-04T05:43:33.473Z,8.96
2023-01-04T05:46:07.574Z,8.94
2023-01-04T05:48:41.360Z,8.99
2023-01-04T05:51:08.576Z,8.98
2023-01-04T05:53:42.316Z,8.96
2023-01-04T05:56:09.772Z,9.05
2023-01-04T05:58:37.071Z,9.05
2023-01-04T06:01:10.506Z,9.03
2023-01-04T06:03:37.593Z,9.03
2023-01-04T06:06:12.375Z,9.04
2023-01-04T06:08:45.395Z,9.05
2023-01-04T06:11:12.555Z,8.99
2023-01-04T06:13:45.256Z,9.09
2023-01-04T06:16:18.381Z,9.10
2023-01-04T06:18:45.131Z,9.13
2023-01-04T06:21:21.212Z,9.12
2023-01-04T06:23:54.471Z,9.08
2023-01-04T06:26:21.822Z,9.14
2023-01-04T06:28:55.398Z,9.14
2023-01-04T06:31:25.308Z,9.20
2023-01-04T06:33:58.465Z,9.18
2023-01-04T06:36:25.084Z,9.21
2023-01-04T06:38:58.343Z,9.21
2023-01-04T06:41:31.372Z,9.20
2023-01-04T06:44:05.304Z,9.24
2023-01-04T06:46:38.372Z,9.23
2023-01-04T06:49:05.067Z,9.23
2023-01-04T06:51:38.383Z,9.21
2023-01-04T06:54:05.188Z,9.28
2023-01-04T06:56:39.426Z,9.31
2023-01-04T06:59:16.310Z,9.28
2023-01-04T07:01:43.283Z,9.35
2023-01-04T07:04:16.454Z,9.35
2023-01-04T07:06:43.254Z,9.34
2023-01-04T07:09:16.367Z,9.32
2023-01-04T07:11:42.975Z,9.36
2023-01-04T07:14:16.372Z,9.38
2023-01-04T07:16:43.206Z,9.34
2023-01-04T07:19:16.336Z,9.36
2023-01-04T07:21:49.350Z,9.33
2023-01-04T07:24:29.608Z,9.37
2023-01-04T07:27:03.350Z,9.41
2023-01-04T07:29:30.000Z,9.46
2023-01-04T07:32:05.722Z,9.49
2023-01-04T07:34:42.452Z,9.53
2023-01-04T07:37:19.405Z,9.51
2023-01-04T07:39:52.564Z,9.59
2023-01-04T07:42:26.416Z,9.62
2023-01-04T07:44:59.554Z,9.65
2023-01-04T07:47:34.415Z,9.70
2023-01-04T07:50:01.067Z,9.72
2023-01-04T07:52:34.608Z,9.73
2023-01-04T07:55:07.494Z,9.74
2023-01-04T07:57:40.371Z,9.78
2023-01-04T08:00:07.916Z,9.82
2023-01-04T08:02:41.528Z,9.87
2023-01-04T08:05:08.869Z,9.87
2023-01-04T08:07:42.441Z,9.87
2023-01-04T08:10:16.570Z,9.90
2023-01-04T08:12:43.243Z,9.91
2023-01-04T08:15:17.458Z,9.94
2023-01-04T08:17:50.305Z,9.87
2023-01-04T08:20:17.194Z,9.92
2023-01-04T08:22:50.400Z,9.96
2023-01-04T08:25:23.799Z,9.98
2023-01-04T08:27:50.477Z,10.03
2023-01-04T08:30:23.915Z,9.95
2023-01-04T08:32:53.964Z,9.97
2023-01-04T08:35:27.483Z,9.95
2023-01-04T08:38:28.505Z,10.00
2023-01-04T08:41:01.785Z,9.98
2023-01-04T08:43:37.345Z,9.98
2023-01-04T08:46:15.114Z,10.00
2023-01-04T08:48:49.536Z,10.00
2023-01-04T08:51:20.211Z,9.99
2023-01-04T08:53:54.382Z,10.00
2023-01-04T08:56:28.419Z,10.01
2023-01-04T08:59:01.405Z,9.98
2023-01-04T09:01:28.280Z,10.05
2023-01-04T09:04:03.486Z,10.04
2023-01-04T09:06:30.365Z,10.03
2023-01-04T09:09:04.436Z,10.07
2023-01-04T09:11:31.012Z,10.06
2023-01-04T09:14:08.616Z,10.08
2023-01-04T09:16:37.402Z,10.14
2023-01-04T09:19:15.120Z,10.13
2023-01-04T09:21:44.918Z,10.07
2023-01-04T09:24:18.472Z,10.14
2023-01-04T09:26:47.866Z,10.14
2023-01-04T09:29:21.431Z,10.08
2023-01-04T09:31:48.170Z,10.17
2023-01-04T09:34:21.485Z,10.19
2023-01-04T09:36:55.416Z,10.13
2023-01-04T09:39:29.547Z,10.21
2023-01-04T09:41:59.147Z,10.27
2023-01-04T09:45:25.067Z,10.21
2023-01-04T09:48:04.087Z,10.27
2023-01-04T09:50:56.454Z,10.27
2023-01-04T09:53:42.456Z,10.29
2023-01-04T09:56:31.984Z,10.29
2023-01-04T09:59:08.474Z,10.34
2023-01-04T10:02:23.835Z,10.38
2023-01-04T10:04:52.117Z,10.41
2023-01-04T10:07:41.439Z,10.42
2023-01-04T10:10:14.992Z,10.51
2023-01-04T10:13:07.485Z,10.51
2023-01-04T10:15:40.189Z,10.50
2023-01-04T10:21:38.453Z,10.59
2023-01-04T10:24:33.695Z,10.64
2023-01-04T10:27:09.217Z,10.66
2023-01-04T10:30:15.765Z,10.71
2023-01-04T10:32:51.605Z,10.74
2023-01-04T10:35:24.349Z,10.76
2023-01-04T10:38:11.417Z,10.80
2023-01-04T10:40:47.591Z,10.75
2023-01-04T10:43:30.529Z,10.82
2023-01-04T10:46:42.518Z,10.89
2023-01-04T10:49:40.552Z,10.88
2023-01-04T10:52:24.417Z,10.93
2023-01-04T10:55:16.211Z,10.94
2023-01-04T10:58:21.435Z,10.94
2023-01-04T11:01:00.538Z,10.94
2023-01-04T11:03:33.564Z,10.96
2023-01-04T11:06:26.523Z,10.96
2023-01-04T11:09:06.451Z,10.92
2023-01-04T11:11:42.205Z,10.94
2023-01-04T11:14:16.516Z,10.95
2023-01-04T11:16:56.587Z,10.91
2023-01-04T11:19:23.330Z,10.96
2023-01-04T11:22:10.358Z,10.89
2023-01-04T11:25:00.669Z,10.94
2023-01-04T11:27:40.183Z,10.96
2023-01-04T11:30:26.559Z,10.95
2023-01-04T11:33:06.544Z,10.97
2023-01-04T11:35:45.523Z,11.01
2023-01-04T11:38:24.699Z,10.98
2023-01-04T11:40:58.213Z,10.99
2023-01-04T11:57:34.539Z,11.03
2023-01-04T12:00:14.289Z,11.04
2023-01-04T12:03:03.094Z,11.01
2023-01-04T12:05:32.481Z,11.04
2023-01-04T12:08:05.522Z,11.02
2023-01-04T12:10:38.536Z,11.02
2023-01-04T12:13:09.899Z,11.02
2023-01-04T12:16:13.574Z,11.01
2023-01-04T12:18:51.832Z,11.00
2023-01-04T12:21:34.152Z,10.95
2023-01-04T12:24:08.509Z,11.05
2023-01-04T12:26:48.620Z,10.94
2023-01-04T12:29:22.546Z,11.07
2023-01-04T12:32:13.586Z,11.07
2023-01-04T12:34:45.638Z,11.07
2023-01-04T12:37:44.593Z,11.07
2023-01-04T12:40:45.392Z,11.08
2023-01-04T12:43:21.563Z,11.06
2023-01-04T12:46:09.187Z,11.08
2023-01-04T12:49:00.575Z,11.10
2023-01-04T12:51:32.041Z,11.10
2023-01-04T12:54:12.560Z,11.12
2023-01-04T12:57:32.116Z,11.20
2023-01-04T13:00:19.522Z,11.26
2023-01-04T13:02:51.179Z,11.33
2023-01-04T13:05:54.883Z,11.35
2023-01-04T13:08:21.571Z,11.34
2023-01-04T13:10:53.832Z,11.38
2023-01-04T13:14:20.618Z,11.37
2023-01-04T13:16:57.770Z,11.39
2023-01-04T13:19:26.978Z,11.42
2023-01-04T13:22:01.607Z,11.35
2023-01-04T13:24:35.758Z,11.40
2023-01-04T13:27:21.620Z,11.42
2023-01-04T13:29:56.608Z,11.39
2023-01-04T13:32:52.814Z,11.35
2023-01-04T13:35:32.591Z,11.37
2023-01-04T13:38:07.630Z,11.29
2023-01-04T13:40:36.471Z,11.31
2023-01-04T13:43:21.687Z,11.38
2023-01-04T13:46:14.401Z,11.41
2023-01-04T13:48:50.627Z,11.45
2023-01-04T13:51:36.198Z,11.39
2023-01-04T13:54:33.346Z,11.56
2023-01-04T13:57:20.714Z,11.58
2023-01-04T13:59:57.598Z,11.55
2023-01-04T14:02:24.849Z,11.60
2023-01-04T14:04:58.720Z,11.60
2023-01-04T14:07:25.771Z,11.63
2023-01-04T14:10:04.925Z,11.63
2023-01-04T14:12:38.636Z,11.63
2023-01-04T14:15:28.626Z,11.61
2023-01-04T14:17:56.754Z,11.66
2023-01-04T14:20:30.101Z,11.71
2023-01-04T14:22:58.962Z,11.65
2023-01-04T14:25:41.655Z,11.72
2023-01-04T14:31:31.325Z,11.73
2023-01-04T14:34:04.689Z,11.76
2023-01-04T14:36:39.734Z,11.68
2023-01-04T14:39:13.260Z,11.89
2023-01-04T14:41:48.791Z,11.87
2023-01-04T14:44:24.021Z,11.80
2023-01-04T14:47:02.759Z,11.89
2023-01-04T14:49:36.779Z,11.90
2023-01-04T14:52:18.143Z,11.95
2023-01-04T14:54:51.768Z,11.89
2023-01-04T14:57:25.517Z,11.93
2023-01-04T14:59:58.683Z,11.85
2023-01-04T15:02:38.609Z,11.88
2023-01-04T15:05:12.774Z,11.77
2023-01-04T15:07:40.698Z,11.87
2023-01-04T15:10:28.857Z,11.91
2023-01-04T15:12:59.259Z,11.91
2023-01-04T15:15:32.738Z,11.96
2023-01-04T15:18:00.191Z,11.87
2023-01-04T15:20:34.778Z,11.94
2023-01-04T15:23:02.145Z,11.87
2023-01-04T15:25:37.074Z,11.78
2023-01-04T15:28:04.746Z,11.90
2023-01-04T15:30:38.732Z,11.75
2023-01-04T15:33:07.067Z,11.84
2023-01-04T15:35:40.839Z,11.89
2023-01-04T15:38:18.209Z,11.87
2023-01-04T15:40:45.960Z,11.86
2023-01-04T15:43:19.661Z,11.80
2023-01-04T15:45:47.344Z,11.76
2023-01-04T15:48:20.936Z,11.74
2023-01-04T15:50:55.415Z,11.63
2023-01-04T15:53:22.619Z,16.09
2023-01-04T15:56:03.331Z,15.12
2023-01-04T15:58:37.841Z,12.87
2023-01-04T16:01:23.001Z,13.18
2023-01-04T16:03:54.036Z,12.17
2023-01-04T16:06:29.116Z,11.88
2023-01-04T16:09:06.008Z,11.62
2023-01-04T16:11:33.449Z,11.65
2023-01-04T16:14:07.168Z,11.59
2023-01-04T16:16:40.868Z,11.66
2023-01-04T16:19:14.891Z,11.49
2023-01-04T16:21:42.887Z,11.60
2023-01-04T16:24:53.281Z,11.61
2023-01-04T16:27:06.596Z,11.69
2023-01-04T16:29:40.853Z,11.72
2023-01-04T16:32:14.939Z,11.77
2023-01-04T16:34:49.788Z,11.78
2023-01-04T16:37:23.919Z,11.77
2023-01-04T16:40:07.610Z,11.77
2023-01-04T16:42:43.858Z,11.75
2023-01-04T16:45:11.457Z,11.77
2023-01-04T16:47:47.698Z,11.66
2023-01-04T16:50:14.851Z,11.67
2023-01-04T16:52:48.764Z,11.68
2023-01-04T16:55:24.376Z,11.70
2023-01-04T16:57:58.128Z,11.76
2023-01-04T17:00:32.982Z,11.79
2023-01-04T17:03:00.119Z,11.69
2023-01-04T17:05:35.309Z,11.75
2023-01-04T17:08:02.121Z,11.78
2023-01-04T17:10:35.977Z,11.58
2023-01-04T17:13:09.845Z,11.66
2023-01-04T17:15:45.187Z,11.48
2023-01-04T17:18:21.983Z,11.58
2023-01-04T17:21:32.679Z,11.43
2023-01-04T17:23:57.417Z,11.36
2023-01-04T17:26:36.918Z,11.48
2023-01-04T17:29:03.774Z,11.55
2023-01-04T17:31:43.936Z,11.55
2023-01-04T17:34:18.469Z,11.47
2023-01-04T17:36:55.719Z,11.56
2023-01-04T17:39:22.947Z,11.55
2023-01-04T17:41:57.261Z,11.53
2023-01-04T17:44:24.732Z,11.56
2023-01-04T17:46:58.950Z,11.54
2023-01-04T17:49:31.322Z,11.51
2023-01-04T17:52:08.668Z,11.57
2023-01-04T17:54:44.455Z,11.50
2023-01-04T17:57:24.985Z,11.58
2023-01-04T17:59:58.187Z,11.59
2023-01-04T18:02:32.029Z,11.52
2023-01-04T18:04:59.742Z,11.56
2023-01-04T18:07:33.962Z,11.51
2023-01-04T18:10:08.232Z,11.46
2023-01-04T18:12:36.151Z,11.54
2023-01-04T18:15:13.066Z,11.53
2023-01-04T18:17:49.065Z,11.54
2023-01-04T18:20:25.465Z,11.49
2023-01-04T18:22:57.704Z,11.53
2023-01-04T18:25:34.192Z,11.60
2023-01-04T18:28:03.569Z,11.63
2023-01-04T18:30:38.048Z,11.66
2023-01-04T18:33:05.197Z,11.62
2023-01-04T18:35:42.735Z,11.51
2023-01-04T18:38:16.159Z,11.56
2023-01-04T18:40:50.209Z,11.53
2023-01-04T18:43:23.755Z,11.51
2023-01-04T18:45:51.057Z,11.45
2023-01-04T18:48:25.077Z,11.46
2023-01-04T18:50:52.822Z,11.29
2023-01-04T18:53:27.150Z,11.31
2023-01-04T18:56:14.636Z,11.24
2023-01-04T18:58:48.092Z,11.28
2023-01-04T19:01:24.073Z,11.22
2023-01-04T19:03:51.689Z,11.22
2023-01-04T19:06:27.957Z,11.13
2023-01-04T19:09:06.462Z,11.10
2023-01-04T19:11:47.477Z,11.13
2023-01-04T19:14:22.149Z,11.10
2023-01-04T19:16:49.386Z,11.05
2023-01-04T19:19:22.984Z,11.10
2023-01-04T19:21:57.029Z,11.07
2023-01-04T19:24:24.409Z,11.11
2023-01-04T19:26:58.872Z,11.09
2023-01-04T19:29:25.936Z,11.13
2023-01-04T19:32:00.230Z,11.05
2023-01-04T19:34:33.964Z,10.98
2023-01-04T19:37:01.757Z,11.06
2023-01-04T19:39:35.192Z,11.06
2023-01-04T19:42:09.096Z,11.09
2023-01-04T19:44:36.698Z,10.99
2023-01-04T19:47:10.745Z,10.98
2023-01-04T19:49:43.784Z,10.91
2023-01-04T19:52:16.913Z,11.07
2023-01-04T19:54:50.959Z,11.01
2023-01-04T19:57:37.907Z,11.09
2023-01-04T20:00:15.873Z,11.07
2023-01-04T20:02:50.016Z,11.08
2023-01-04T20:05:18.127Z,11.01
2023-01-04T20:07:51.951Z,10.92
2023-01-04T20:10:18.834Z,10.80
2023-01-04T20:12:51.801Z,10.81
2023-01-04T20:15:18.772Z,10.84
2023-01-04T20:17:45.547Z,10.85
2023-01-04T20:20:20.140Z,10.83
2023-01-04T20:22:47.735Z,10.77
2023-01-04T20:25:22.146Z,10.82
2023-01-04T20:27:48.975Z,10.85
2023-01-04T20:30:23.912Z,10.88
2023-01-04T20:32:50.616Z,10.85
2023-01-04T20:35:23.872Z,10.83
2023-01-04T20:37:54.795Z,10.84
2023-01-04T20:40:28.908Z,10.79
2023-01-04T20:43:14.399Z,10.80
2023-01-04T20:45:49.038Z,10.76
2023-01-04T20:48:16.278Z,10.75
2023-01-04T20:50:51.117Z,10.61
2023-01-04T20:53:18.120Z,10.69
2023-01-04T20:56:11.930Z,10.67
2023-01-04T20:58:39.006Z,10.67
2023-01-04T21:01:14.088Z,10.68
2023-01-04T21:03:41.990Z,10.71
2023-01-04T21:06:19.028Z,10.64
2023-01-04T21:08:47.165Z,10.66
2023-01-04T21:11:14.990Z,10.65
2023-01-04T21:13:49.873Z,10.58
2023-01-04T21:16:17.082Z,10.67
2023-01-04T21:18:50.813Z,10.51
2023-01-04T21:21:18.890Z,10.58
2023-01-04T21:23:57.774Z,10.45
2023-01-04T21:26:24.845Z,10.40
2023-01-04T21:28:57.828Z,10.28
2023-01-04T21:31:25.298Z,10.28
2023-01-04T21:34:00.764Z,10.17
2023-01-04T21:36:35.066Z,10.11
2023-01-04T21:39:01.788Z,10.09
2023-01-04T21:41:34.968Z,10.08
2023-01-04T21:44:01.851Z,10.03
2023-01-04T21:46:35.891Z,10.01
2023-01-04T21:49:09.795Z,9.99
2023-01-04T21:51:36.473Z,9.95
2023-01-04T21:54:09.798Z,9.87
2023-01-04T21:56:42.902Z,9.95
2023-01-04T21:59:22.853Z,9.96
2023-01-04T22:01:55.858Z,10.00
2023-01-04T22:04:22.518Z,10.00
2023-01-04T22:06:49.176Z,10.04
2023-01-04T22:09:22.844Z,10.04
2023-01-04T22:11:56.934Z,10.05
2023-01-04T22:14:23.598Z,10.06
2023-01-04T22:16:56.765Z,10.08
2023-01-04T22:19:23.636Z,10.08
2023-01-04T22:21:57.122Z,10.09
2023-01-04T22:24:37.200Z,10.07
2023-01-04T22:27:04.631Z,10.05
2023-01-04T22:29:37.790Z,10.02
2023-01-04T22:32:13.853Z,10.01
2023-01-04T22:34:46.806Z,10.05
2023-01-04T22:37:19.844Z,10.06
2023-01-04T22:39:52.845Z,10.03
2023-01-04T22:42:19.475Z,10.05
2023-01-04T22:44:59.911Z,10.06
2023-01-04T22:47:26.672Z,10.05
2023-01-04T22:49:59.812Z,10.00
2023-01-04T22:52:26.395Z,10.03
2023-01-04T22:54:59.933Z,10.02
2023-01-04T22:57:39.937Z,10.06
2023-01-04T23:00:21.891Z,10.08
2023-01-04T23:02:54.876Z,10.04
2023-01-04T23:05:21.725Z,10.06
2023-01-04T23:07:54.766Z,9.97
2023-01-04T23:10:21.357Z,9.92
2023-01-04T23:12:54.881Z,9.90
2023-01-04T23:15:27.848Z,9.84
2023-01-04T23:18:00.835Z,9.83
2023-01-04T23:20:27.489Z,9.86
2023-01-04T23:23:00.863Z,9.87
2023-01-04T23:25:27.580Z,9.79
2023-01-04T23:28:00.829Z,9.95
2023-01-04T23:30:27.406Z,9.95
2023-01-04T23:33:00.826Z,10.01
2023-01-04T23:35:27.414Z,10.02
2023-01-04T23:37:54.028Z,10.03
2023-01-04T23:40:26.897Z,10.03
2023-01-04T23:42:56.990Z,10.00
2023-01-04T23:45:30.875Z,10.06
2023-01-04T23:48:03.825Z,10.10
2023-01-04T23:50:36.851Z,10.11
2023-01-04T23:53:03.542Z,10.09
2023-01-04T23:55:36.902Z,10.15
2023-01-04T23:58:09.942Z,10.14
